Time;durP1;ratioP1;P1;durP2;ratioP2;P2;SDS_P1;SDS_P2;PMS_P1;PMS_P2;Temp;Humidity;BMP_temperature;BMP_pressure;BME280_temperature;BME280_humidity;BME280_pressure;Samples;Min_cycle;Max_cycle;Signal;HPM_P1;HPM_P2
2022/04/04 00:00:12;;;;;;;8.47;7.77;;;4.80;71.10;;;;;;5016346;28;20187;-57
2022/04/04 00:02:38;;;;;;;8.55;7.88;;;4.80;71.00;;;;;;5014875;28;20196;-59
2022/04/04 00:05:04;;;;;;;9.10;8.40;;;4.80;71.50;;;;;;5018521;28;20574;-56
2022/04/04 00:07:30;;;;;;;9.55;8.20;;;4.80;71.80;;;;;;5009876;28;20426;-56
2022/04/04 00:09:55;;;;;;;8.23;7.63;;;4.90;71.30;;;;;;5009661;28;20195;-55
2022/04/04 00:12:21;;;;;;;8.30;7.70;;;4.80;71.80;;;;;;5009190;28;20198;-56
2022/04/04 00:14:48;;;;;;;8.88;8.10;;;4.90;71.90;;;;;;5018450;28;20661;-57
2022/04/04 00:17:13;;;;;;;8.27;7.68;;;4.80;72.30;;;;;;5019871;28;20242;-58
2022/04/04 00:19:39;;;;;;;8.47;7.80;;;4.80;72.50;;;;;;5017535;28;20214;-57
2022/04/04 00:22:06;;;;;;;8.38;7.78;;;4.80;72.30;;;;;;5011328;28;20199;-57
2022/04/04 00:24:31;;;;;;;7.65;7.05;;;4.70;72.80;;;;;;5011334;28;20204;-56
2022/04/04 00:26:57;;;;;;;8.87;8.17;;;4.70;73.00;;;;;;5024596;28;20194;-56
2022/04/04 00:29:23;;;;;;;8.77;8.07;;;4.70;73.80;;;;;;5016551;28;20662;-56
2022/04/04 00:31:48;;;;;;;7.90;7.30;;;4.70;74.20;;;;;;5019240;28;20192;-55
2022/04/04 00:34:14;;;;;;;7.53;7.03;;;4.60;74.80;;;;;;5016125;28;20191;-58
2022/04/04 00:36:40;;;;;;;8.53;7.83;;;4.70;74.80;;;;;;5011226;28;20188;-59
2022/04/04 00:39:06;;;;;;;8.50;7.90;;;4.70;75.00;;;;;;5012270;28;20187;-57
2022/04/04 00:41:32;;;;;;;7.83;7.13;;;4.60;75.30;;;;;;5007701;28;20191;-58
2022/04/04 00:43:57;;;;;;;8.00;7.40;;;4.70;74.80;;;;;;5010542;28;20637;-56
2022/04/04 00:46:23;;;;;;;8.57;7.73;;;4.70;75.00;;;;;;5017161;28;20184;-58
2022/04/04 00:48:48;;;;;;;8.30;7.60;;;4.70;75.50;;;;;;5015054;28;20266;-57
2022/04/04 00:51:14;;;;;;;7.73;7.23;;;4.60;75.90;;;;;;5013813;28;20901;-56
2022/04/04 00:53:40;;;;;;;7.93;7.33;;;4.60;76.10;;;;;;5018576;28;20191;-57
2022/04/04 00:56:07;;;;;;;8.53;7.83;;;4.60;76.40;;;;;;5021827;28;20449;-58
2022/04/04 00:58:37;;;;;;;8.00;7.20;;;4.70;77.00;;;;;;5017118;28;20449;-58
2022/04/04 01:01:04;;;;;;;7.90;7.30;;;4.60;77.40;;;;;;5020448;28;20195;-56
2022/04/04 01:03:29;;;;;;;8.35;7.70;;;4.60;77.80;;;;;;5016063;28;20210;-58
2022/04/04 01:05:57;;;;;;;7.77;7.07;;;4.70;77.50;;;;;;5017538;28;20200;-58
2022/04/04 01:08:24;;;;;;;7.75;7.05;;;4.60;78.30;;;;;;5024835;28;20184;-56
2022/04/04 01:10:50;;;;;;;7.70;7.10;;;4.60;78.90;;;;;;5019173;28;20295;-56
2022/04/04 01:13:15;;;;;;;7.83;7.13;;;4.70;79.20;;;;;;5017667;28;20274;-57
2022/04/04 01:15:41;;;;;;;7.87;7.17;;;4.60;79.60;;;;;;5010723;28;20450;-59
2022/04/04 01:18:08;;;;;;;8.70;8.00;;;4.60;80.20;;;;;;5023010;28;20196;-57
2022/04/04 01:20:37;;;;;;;8.43;7.72;;;4.60;80.70;;;;;;5014951;28;20191;-58
2022/04/04 01:23:05;;;;;;;7.75;7.07;;;4.60;81.80;;;;;;5029213;28;20189;-58
2022/04/04 01:25:32;;;;;;;7.57;6.97;;;4.50;83.30;;;;;;5023970;28;20673;-58
2022/04/04 01:27:59;;;;;;;7.65;7.05;;;4.60;84.30;;;;;;5008781;28;20181;-57
2022/04/04 01:30:26;;;;;;;7.72;7.13;;;4.60;85.30;;;;;;5017834;28;20203;-57
2022/04/04 01:32:52;;;;;;;7.72;7.03;;;4.60;85.60;;;;;;5013866;28;21013;-58
2022/04/04 01:35:20;;;;;;;7.55;6.90;;;4.60;85.90;;;;;;5010194;28;20184;-59
2022/04/04 01:37:46;;;;;;;7.80;7.20;;;4.60;86.40;;;;;;5010737;28;20568;-56
2022/04/04 01:40:12;;;;;;;7.75;7.15;;;4.50;87.30;;;;;;5006467;28;20237;-58
2022/04/04 01:42:38;;;;;;;7.13;6.63;;;4.60;88.20;;;;;;5008354;28;20261;-59
2022/04/04 01:45:09;;;;;;;7.10;6.50;;;4.50;89.00;;;;;;5011171;28;20606;-56
2022/04/04 01:47:36;;;;;;;7.85;7.18;;;4.40;89.70;;;;;;5010031;28;20219;-56
2022/04/04 01:50:03;;;;;;;7.65;7.07;;;4.40;90.60;;;;;;5010663;28;21627;-59
2022/04/04 01:52:28;;;;;;;8.43;7.72;;;4.50;90.50;;;;;;5004223;28;20180;-57
2022/04/04 01:54:54;;;;;;;7.87;7.27;;;4.50;90.90;;;;;;5000643;28;20294;-56
2022/04/04 01:57:20;;;;;;;8.37;7.67;;;4.50;91.00;;;;;;5009810;28;20195;-57
2022/04/04 01:59:45;;;;;;;8.20;7.60;;;4.40;91.50;;;;;;5010089;28;20196;-56
2022/04/04 02:02:11;;;;;;;9.20;8.47;;;4.40;91.60;;;;;;5007648;28;20439;-58
2022/04/04 02:04:37;;;;;;;8.43;7.83;;;4.40;91.70;;;;;;5010482;28;20318;-55
2022/04/04 02:07:05;;;;;;;8.60;7.80;;;4.40;91.50;;;;;;5009601;28;20261;-55
2022/04/04 02:09:31;;;;;;;7.85;7.25;;;4.20;91.80;;;;;;5008100;28;20191;-57
2022/04/04 02:11:57;;;;;;;8.53;7.63;;;4.20;92.00;;;;;;5013789;28;20513;-58
2022/04/04 02:14:23;;;;;;;9.00;8.20;;;4.20;92.10;;;;;;5022686;28;20437;-56
2022/04/04 02:16:48;;;;;;;8.37;7.67;;;4.10;92.50;;;;;;5012276;28;20188;-57
2022/04/04 02:19:16;;;;;;;8.30;7.63;;;4.10;92.60;;;;;;5020344;28;20199;-57
2022/04/04 02:21:41;;;;;;;7.47;6.82;;;4.00;92.70;;;;;;5014897;28;20214;-57
2022/04/04 02:24:08;;;;;;;8.13;7.53;;;4.00;93.20;;;;;;5008413;28;20616;-58
2022/04/04 02:26:33;;;;;;;7.85;7.25;;;3.90;93.50;;;;;;5011082;28;20536;-58
2022/04/04 02:28:59;;;;;;;8.43;7.77;;;3.90;93.40;;;;;;5011696;28;20195;-58
2022/04/04 02:31:24;;;;;;;8.67;7.87;;;3.70;93.60;;;;;;5011675;28;20184;-55
2022/04/04 02:33:51;;;;;;;7.30;6.70;;;3.70;94.00;;;;;;5010371;28;20184;-58
2022/04/04 02:36:17;;;;;;;7.60;7.00;;;3.60;94.00;;;;;;5012827;28;20773;-58
2022/04/04 02:38:43;;;;;;;8.10;7.40;;;3.70;94.00;;;;;;5021307;28;20257;-59
2022/04/04 02:41:08;;;;;;;8.00;7.30;;;3.70;93.30;;;;;;5013702;28;20192;-58
2022/04/04 02:43:34;;;;;;;8.17;6.90;;;3.80;93.10;;;;;;5014262;28;20654;-57
2022/04/04 02:46:00;;;;;;;7.70;7.10;;;3.70;93.20;;;;;;5022848;28;20218;-60
2022/04/04 02:48:25;;;;;;;7.37;6.77;;;3.70;93.40;;;;;;5027230;28;20190;-59
2022/04/04 02:50:52;;;;;;;7.10;6.60;;;3.70;93.20;;;;;;5010575;28;20183;-55
2022/04/04 02:53:18;;;;;;;7.57;7.03;;;3.70;92.70;;;;;;5013327;28;20190;-59
2022/04/04 02:58:28;;;;;;;7.95;7.35;;;3.70;92.80;;;;;;5012253;28;20447;-59
2022/04/04 03:00:54;;;;;;;8.10;7.50;;;3.60;92.80;;;;;;5008898;28;20281;-59
2022/04/04 03:03:19;;;;;;;8.47;7.67;;;3.70;92.60;;;;;;5017376;28;20595;-60
2022/04/04 03:05:46;;;;;;;8.17;7.47;;;3.60;92.80;;;;;;5013378;28;20191;-58
2022/04/04 03:08:12;;;;;;;8.52;7.82;;;3.70;92.20;;;;;;5017428;28;20639;-59
2022/04/04 03:10:38;;;;;;;7.40;6.70;;;3.60;92.40;;;;;;5012738;28;20187;-58
2022/04/04 03:13:05;;;;;;;8.38;7.68;;;3.60;92.40;;;;;;5020147;28;20225;-59
2022/04/04 03:15:34;;;;;;;7.70;7.03;;;3.60;92.40;;;;;;5015010;28;20668;-54
2022/04/04 03:18:00;;;;;;;7.55;6.95;;;3.60;92.40;;;;;;5016534;28;20596;-58
2022/04/04 03:20:27;;;;;;;8.32;7.70;;;3.50;92.20;;;;;;5012444;28;20225;-59
2022/04/04 03:22:55;;;;;;;7.60;7.00;;;3.50;92.40;;;;;;5008138;28;20291;-56
2022/04/04 03:25:21;;;;;;;7.20;6.60;;;3.40;92.60;;;;;;5009218;28;20194;-59
2022/04/04 03:27:48;;;;;;;8.23;7.53;;;3.40;92.40;;;;;;5009749;28;20192;-57
2022/04/04 03:30:18;;;;;;;7.93;7.22;;;3.40;92.50;;;;;;5007446;28;20186;-55
2022/04/04 03:32:45;;;;;;;7.53;6.93;;;3.40;92.20;;;;;;5010934;28;20180;-56
2022/04/04 03:35:11;;;;;;;6.72;6.10;;;3.40;92.50;;;;;;5025671;28;20201;-58
2022/04/04 03:37:37;;;;;;;7.47;6.88;;;3.40;92.40;;;;;;5023392;28;20199;-57
2022/04/04 03:40:08;;;;;;;7.85;7.07;;;3.30;92.40;;;;;;5008814;28;20245;-58
2022/04/04 03:42:34;;;;;;;7.65;7.05;;;3.30;92.60;;;;;;5009386;28;20180;-56
2022/04/04 03:45:00;;;;;;;7.05;6.55;;;3.40;92.60;;;;;;5017579;28;20207;-58
2022/04/04 03:47:26;;;;;;;8.07;7.37;;;3.40;92.90;;;;;;5008367;28;20190;-58
2022/04/04 03:49:51;;;;;;;8.20;7.53;;;3.40;92.10;;;;;;5007978;28;20443;-59
2022/04/04 03:52:17;;;;;;;7.57;6.97;;;3.40;92.20;;;;;;5008034;28;20188;-56
2022/04/04 03:54:42;;;;;;;6.87;6.37;;;3.40;92.10;;;;;;5018299;28;20304;-59
2022/04/04 03:57:08;;;;;;;8.03;7.40;;;3.40;92.00;;;;;;5008923;28;20198;-58
2022/04/04 03:59:34;;;;;;;7.93;7.13;;;3.30;91.90;;;;;;5009832;28;20650;-58
2022/04/04 04:01:59;;;;;;;7.57;6.97;;;3.30;92.00;;;;;;5015958;28;20218;-57
2022/04/04 04:04:25;;;;;;;10.63;7.33;;;3.30;92.20;;;;;;5012117;28;20737;-58
2022/04/04 04:06:51;;;;;;;7.17;6.57;;;3.30;92.10;;;;;;5012598;28;20187;-57
2022/04/04 04:09:17;;;;;;;7.35;6.75;;;3.10;92.50;;;;;;5015781;28;20267;-60
2022/04/04 04:11:43;;;;;;;8.50;7.70;;;3.10;92.50;;;;;;5012848;28;20183;-58
2022/04/04 04:14:08;;;;;;;7.67;7.03;;;3.10;92.60;;;;;;5017159;28;20473;-58
2022/04/04 04:16:34;;;;;;;8.07;7.33;;;3.10;92.60;;;;;;5024462;28;20206;-57
2022/04/04 04:19:00;;;;;;;8.70;6.67;;;3.00;92.80;;;;;;5011700;28;20194;-56
2022/04/04 04:21:25;;;;;;;7.60;6.87;;;2.90;92.90;;;;;;5019666;28;20532;-58
2022/04/04 04:23:51;;;;;;;8.37;7.57;;;2.80;93.20;;;;;;5016779;28;20209;-58
2022/04/04 04:26:17;;;;;;;8.07;7.40;;;2.80;94.70;;;;;;5013622;28;20198;-58
2022/04/04 04:28:45;;;;;;;7.60;6.90;;;2.90;94.40;;;;;;5016268;28;20270;-59
2022/04/04 04:31:11;;;;;;;8.50;7.80;;;3.00;93.70;;;;;;5013804;28;21090;-59
2022/04/04 04:33:37;;;;;;;8.57;7.78;;;2.90;93.70;;;;;;5012989;28;20192;-59
2022/04/04 04:36:02;;;;;;;8.38;7.68;;;2.90;93.30;;;;;;5012999;28;20248;-59
2022/04/04 04:38:30;;;;;;;8.13;7.43;;;2.90;93.30;;;;;;5015297;28;20248;-58
2022/04/04 04:40:56;;;;;;;8.70;8.00;;;2.80;93.40;;;;;;4998595;28;20442;-59
2022/04/04 04:43:22;;;;;;;8.50;7.70;;;2.80;93.70;;;;;;5020635;28;20214;-59
2022/04/04 04:45:48;;;;;;;8.93;8.23;;;2.90;93.40;;;;;;5010203;28;20179;-60
2022/04/04 04:48:14;;;;;;;8.30;7.60;;;2.80;94.20;;;;;;5032299;28;20479;-60
2022/04/04 04:50:40;;;;;;;9.20;8.30;;;2.70;95.10;;;;;;5016346;28;20275;-59
2022/04/04 04:53:06;;;;;;;8.80;8.10;;;2.70;94.10;;;;;;5020771;28;20433;-59
2022/04/04 04:55:32;;;;;;;9.13;8.32;;;2.70;94.40;;;;;;5013652;28;21009;-59
2022/04/04 04:57:57;;;;;;;9.17;8.37;;;2.60;95.50;;;;;;5020187;28;20318;-59
2022/04/04 05:00:26;;;;;;;9.20;8.20;;;2.60;95.70;;;;;;5022903;28;20427;-59
2022/04/04 05:03:24;;;;;;;10.18;9.20;;;2.50;95.80;;;;;;5013624;28;20190;-58
2022/04/04 05:05:39;;;;;;;11.20;9.05;;;2.50;96.00;;;;;;5010923;28;20195;-59
2022/04/04 05:08:06;;;;;;;8.38;7.57;;;2.50;96.00;;;;;;5023967;28;20249;-58
2022/04/04 05:10:32;;;;;;;9.45;8.50;;;2.60;95.50;;;;;;5010210;28;20180;-58
2022/04/04 05:12:57;;;;;;;9.97;8.97;;;2.60;95.60;;;;;;5010800;28;20631;-59
2022/04/04 05:15:23;;;;;;;9.27;8.33;;;2.60;95.50;;;;;;5011034;28;20506;-58
2022/04/04 05:17:49;;;;;;;9.20;8.38;;;2.70;95.80;;;;;;5011136;28;20255;-59
2022/04/04 05:20:15;;;;;;;7.90;7.20;;;2.70;95.70;;;;;;5009871;28;20268;-59
2022/04/04 05:22:40;;;;;;;8.77;7.90;;;2.80;95.40;;;;;;4999911;28;20334;-58
2022/04/04 05:25:06;;;;;;;9.93;9.00;;;3.00;94.40;;;;;;4991129;28;20216;-59
2022/04/04 05:27:32;;;;;;;9.27;8.37;;;3.20;93.70;;;;;;4991392;28;20165;-57
2022/04/04 05:29:57;;;;;;;9.77;8.87;;;3.20;93.60;;;;;;4991064;28;20458;-58
2022/04/04 05:32:23;;;;;;;9.47;8.53;;;3.30;93.60;;;;;;4991120;28;20191;-57
2022/04/04 05:34:49;;;;;;;9.53;8.63;;;3.30;93.60;;;;;;4991108;28;20613;-58
2022/04/04 05:37:15;;;;;;;9.87;8.97;;;3.40;93.20;;;;;;4991098;28;20182;-59
2022/04/04 05:39:40;;;;;;;10.45;9.50;;;3.50;92.80;;;;;;5007661;28;20208;-58
2022/04/04 05:42:06;;;;;;;9.60;8.70;;;3.50;92.40;;;;;;4994653;28;20287;-59
2022/04/04 05:44:32;;;;;;;10.70;9.70;;;3.50;92.30;;;;;;4991003;28;20228;-59
2022/04/04 05:46:58;;;;;;;10.05;9.10;;;3.60;92.00;;;;;;4991323;28;20177;-58
2022/04/04 05:49:24;;;;;;;10.40;9.50;;;3.70;91.40;;;;;;4992434;28;20219;-59
2022/04/04 05:51:49;;;;;;;9.67;8.73;;;3.80;91.20;;;;;;5004276;28;20208;-58
2022/04/04 05:54:15;;;;;;;10.30;9.00;;;3.80;91.10;;;;;;4973885;28;1035459;-59
2022/04/04 05:56:43;;;;;;;9.30;8.40;;;3.80;91.00;;;;;;5011335;28;20258;-59
2022/04/04 05:59:09;;;;;;;9.73;8.82;;;3.80;90.80;;;;;;5010613;28;20657;-60
2022/04/04 06:01:35;;;;;;;9.33;8.43;;;3.80;90.90;;;;;;5008851;28;20669;-60
2022/04/04 06:04:00;;;;;;;10.30;9.40;;;3.80;91.30;;;;;;5010620;28;20200;-59
2022/04/04 06:06:26;;;;;;;10.67;9.60;;;3.80;91.50;;;;;;5010912;28;20830;-58
2022/04/04 06:08:52;;;;;;;11.10;10.10;;;3.90;91.30;;;;;;5030790;28;20944;-59
2022/04/04 06:11:17;;;;;;;10.40;9.30;;;3.90;91.40;;;;;;5030797;28;20225;-60
2022/04/04 06:13:43;;;;;;;10.57;9.57;;;4.00;90.10;;;;;;4998017;28;20413;-59
2022/04/04 06:16:09;;;;;;;10.40;9.50;;;4.10;89.30;;;;;;5023223;28;20179;-58
2022/04/04 06:18:35;;;;;;;10.32;9.27;;;4.10;89.00;;;;;;5021209;28;20429;-56
2022/04/04 06:21:02;;;;;;;14.33;13.03;;;4.20;88.90;;;;;;5019689;28;20555;-59
2022/04/04 06:23:28;;;;;;;10.95;9.95;;;4.10;90.30;;;;;;5009064;28;20200;-58
2022/04/04 06:25:54;;;;;;;10.90;9.80;;;4.30;88.70;;;;;;5021094;28;20182;-58
2022/04/04 06:28:20;;;;;;;10.43;9.43;;;4.30;88.90;;;;;;5030432;28;20214;-57
2022/04/04 06:30:45;;;;;;;11.73;10.63;;;4.40;88.00;;;;;;5030248;28;20205;-59
2022/04/04 06:33:11;;;;;;;11.40;10.30;;;4.50;87.80;;;;;;5030480;28;20421;-60
2022/04/04 06:35:37;;;;;;;11.48;10.27;;;4.70;87.50;;;;;;5028473;28;20186;-59
2022/04/04 06:38:03;;;;;;;11.10;10.00;;;4.80;85.70;;;;;;5013362;28;20634;-59
2022/04/04 06:40:30;;;;;;;11.10;9.90;;;5.00;84.30;;;;;;5029419;28;20179;-59
2022/04/04 06:42:57;;;;;;;11.23;10.23;;;5.00;84.10;;;;;;5030211;28;20171;-60
2022/04/04 06:45:22;;;;;;;12.20;11.05;;;5.10;84.00;;;;;;5029897;28;20213;-59
2022/04/04 06:47:48;;;;;;;11.87;10.70;;;5.10;83.30;;;;;;5029974;28;20183;-58
2022/04/04 06:50:14;;;;;;;12.23;10.87;;;5.10;83.50;;;;;;5027231;28;20182;-60
2022/04/04 06:52:40;;;;;;;12.20;11.00;;;5.20;83.10;;;;;;5017454;28;20191;-58
2022/04/04 06:55:08;;;;;;;10.93;9.80;;;5.30;83.90;;;;;;5009930;28;20836;-58
2022/04/04 06:57:33;;;;;;;14.25;11.15;;;5.20;83.60;;;;;;5009185;28;20184;-59
2022/04/04 06:59:59;;;;;;;11.07;9.90;;;5.20;83.90;;;;;;5008950;28;20186;-58
2022/04/04 07:02:25;;;;;;;11.37;10.20;;;5.30;82.80;;;;;;5012238;28;20180;-59
2022/04/04 07:04:50;;;;;;;9.43;8.53;;;5.40;82.30;;;;;;4997274;28;20658;-57
2022/04/04 07:07:17;;;;;;;9.80;8.80;;;5.40;81.10;;;;;;5025907;28;20185;-59
2022/04/04 07:09:44;;;;;;;10.93;9.60;;;5.40;80.90;;;;;;5020761;28;20260;-58
2022/04/04 07:12:10;;;;;;;8.25;7.38;;;5.40;81.20;;;;;;5015270;28;20186;-60
2022/04/04 07:14:35;;;;;;;10.90;10.00;;;5.60;80.30;;;;;;5029644;28;20183;-56
2022/04/04 07:17:02;;;;;;;11.20;10.10;;;5.60;80.50;;;;;;5023439;28;20191;-60
2022/04/04 07:19:33;;;;;;;9.82;8.80;;;5.70;79.90;;;;;;5009624;28;20179;-59
2022/04/04 07:22:02;;;;;;;9.65;8.75;;;5.80;78.80;;;;;;5018113;28;20179;-60
2022/04/04 07:24:28;;;;;;;9.00;8.10;;;5.90;77.90;;;;;;5008966;28;20253;-60
2022/04/04 07:26:54;;;;;;;8.77;8.07;;;5.90;77.40;;;;;;5015147;28;20182;-59
2022/04/04 07:29:19;;;;;;;8.70;7.80;;;6.00;76.30;;;;;;5013923;28;20642;-59
2022/04/04 07:31:45;;;;;;;9.33;8.47;;;6.10;75.80;;;;;;5016348;28;20937;-59
2022/04/04 07:34:10;;;;;;;8.97;8.20;;;6.10;75.20;;;;;;5018069;28;20629;-60
2022/04/04 07:36:37;;;;;;;8.70;8.00;;;6.10;73.90;;;;;;5029312;28;20195;-57
2022/04/04 07:39:04;;;;;;;8.40;7.70;;;6.20;74.40;;;;;;5009257;28;20191;-57
2022/04/04 07:41:30;;;;;;;7.97;7.28;;;6.30;73.20;;;;;;5020302;28;20249;-55
2022/04/04 07:43:55;;;;;;;9.50;8.60;;;6.30;72.00;;;;;;5015133;28;20210;-59
2022/04/04 07:46:21;;;;;;;9.67;8.87;;;6.50;71.80;;;;;;5027344;28;20179;-59
2022/04/04 07:48:47;;;;;;;9.30;8.50;;;6.60;71.80;;;;;;5014804;28;20193;-58
2022/04/04 07:51:13;;;;;;;9.43;8.63;;;6.80;68.90;;;;;;5028774;28;20618;-59
2022/04/04 07:53:38;;;;;;;9.33;8.43;;;6.80;67.50;;;;;;5014408;28;20180;-59
2022/04/04 07:56:04;;;;;;;9.73;8.90;;;6.90;65.30;;;;;;5018081;28;20442;-59
2022/04/04 07:58:30;;;;;;;9.40;8.60;;;6.80;65.00;;;;;;5019627;28;20190;-59
2022/04/04 08:00:55;;;;;;;9.60;8.70;;;6.90;64.50;;;;;;5017075;28;20437;-57
2022/04/04 08:03:22;;;;;;;10.13;9.23;;;6.90;63.30;;;;;;5015622;28;20630;-59
2022/04/04 08:05:48;;;;;;;9.73;8.82;;;7.00;62.00;;;;;;5015515;28;20210;-57
2022/04/04 08:08:14;;;;;;;8.97;8.17;;;7.10;61.10;;;;;;5023907;28;20616;-58
2022/04/04 08:10:41;;;;;;;7.60;7.00;;;7.10;60.70;;;;;;5014219;28;20508;-56
2022/04/04 08:13:07;;;;;;;10.70;9.63;;;7.10;59.90;;;;;;5022764;28;20221;-56
2022/04/04 08:15:33;;;;;;;10.30;9.40;;;7.20;59.30;;;;;;5015097;28;20183;-60
2022/04/04 08:17:59;;;;;;;10.65;9.75;;;7.20;59.20;;;;;;5023873;28;20664;-58
2022/04/04 08:20:25;;;;;;;9.70;8.80;;;7.40;59.10;;;;;;5028603;28;20206;-60
2022/04/04 08:22:50;;;;;;;10.30;9.30;;;7.60;58.30;;;;;;5028928;28;20207;-58
2022/04/04 08:25:17;;;;;;;9.30;8.50;;;7.80;58.50;;;;;;5024102;28;20207;-58
2022/04/04 08:27:43;;;;;;;11.05;8.82;;;7.70;56.60;;;;;;5018970;28;20205;-59
2022/04/04 08:30:11;;;;;;;10.63;9.73;;;7.70;55.80;;;;;;5028262;28;20883;-57
2022/04/04 08:32:38;;;;;;;10.30;9.30;;;7.60;56.60;;;;;;5028846;28;20290;-57
2022/04/04 08:35:08;;;;;;;11.35;10.40;;;7.60;55.30;;;;;;5019758;28;20293;-58
2022/04/04 08:37:35;;;;;;;8.80;8.00;;;7.70;54.90;;;;;;5028655;28;20798;-56
2022/04/04 08:40:03;;;;;;;10.70;9.80;;;7.90;54.60;;;;;;5011638;28;20571;-56
2022/04/04 08:42:28;;;;;;;10.97;10.07;;;8.00;54.10;;;;;;5012903;28;20500;-56
2022/04/04 08:44:56;;;;;;;10.77;9.77;;;8.20;53.00;;;;;;5024280;28;20552;-59
2022/04/04 08:47:22;;;;;;;10.13;9.23;;;8.20;52.60;;;;;;5027063;28;20425;-59
2022/04/04 08:49:52;;;;;;;10.07;9.10;;;8.30;51.70;;;;;;5027853;28;20441;-59
2022/04/04 08:52:18;;;;;;;9.43;8.63;;;8.50;52.10;;;;;;5032247;28;20417;-55
2022/04/04 08:54:43;;;;;;;9.20;8.40;;;8.50;50.30;;;;;;5029159;28;20469;-59
2022/04/04 08:57:09;;;;;;;10.07;9.20;;;8.50;50.20;;;;;;5014802;28;20183;-59
2022/04/04 08:59:34;;;;;;;7.70;7.10;;;8.80;49.10;;;;;;5012258;28;20342;-57
2022/04/04 09:02:00;;;;;;;8.27;7.47;;;9.10;47.30;;;;;;5027643;28;20189;-58
2022/04/04 09:04:26;;;;;;;9.20;8.43;;;8.90;45.40;;;;;;5004524;28;20200;-57
2022/04/04 09:06:54;;;;;;;9.40;8.70;;;9.20;45.60;;;;;;5025305;28;20765;-60
2022/04/04 09:09:37;;;;;;;17.70;7.37;;;9.50;44.90;;;;;;5011879;28;20176;-58
2022/04/04 09:12:17;;;;;;;7.43;6.83;;;9.50;43.40;;;;;;5014365;28;20522;-59
2022/04/04 09:14:51;;;;;;;8.90;8.13;;;9.70;42.80;;;;;;5024314;28;20421;-59
2022/04/04 09:17:20;;;;;;;9.10;8.43;;;9.90;42.90;;;;;;4999715;28;20422;-56
2022/04/04 09:19:46;;;;;;;7.50;6.90;;;10.10;40.50;;;;;;5011676;28;20420;-58
2022/04/04 09:22:18;;;;;;;8.03;7.37;;;9.70;41.30;;;;;;5010194;28;20426;-59
2022/04/04 09:24:48;;;;;;;8.33;7.67;;;9.90;41.50;;;;;;5019981;28;20620;-58
2022/04/04 09:27:21;;;;;;;9.97;9.07;;;10.00;40.00;;;;;;5016917;28;20897;-57
2022/04/04 09:29:48;;;;;;;9.30;8.60;;;9.90;40.40;;;;;;5022226;28;20468;-58
2022/04/04 09:32:17;;;;;;;9.87;9.00;;;9.90;41.00;;;;;;5006384;28;21032;-60
2022/04/04 09:35:01;;;;;;;9.23;8.53;;;10.20;39.90;;;;;;5031476;28;20483;-60
2022/04/04 09:37:30;;;;;;;9.00;8.20;;;11.20;39.10;;;;;;5014208;28;20788;-57
2022/04/04 09:40:17;;;;;;;9.43;8.73;;;11.70;37.30;;;;;;5020057;28;20512;-56
2022/04/04 09:42:57;;;;;;;9.40;8.70;;;11.90;36.30;;;;;;5027807;28;20846;-58
2022/04/04 09:45:24;;;;;;;10.07;9.27;;;11.60;35.50;;;;;;5015834;28;20469;-60
2022/04/04 09:48:00;;;;;;;9.50;8.80;;;11.70;35.30;;;;;;4999584;28;20433;-61
2022/04/04 09:50:29;;;;;;;9.23;8.63;;;12.00;36.10;;;;;;4998630;28;20453;-59
2022/04/04 09:52:57;;;;;;;8.83;8.20;;;12.40;35.20;;;;;;5029138;28;20900;-58
2022/04/04 09:55:34;;;;;;;7.77;7.17;;;12.30;33.40;;;;;;5017427;28;20826;-59
2022/04/04 09:58:02;;;;;;;8.40;7.70;;;11.30;33.50;;;;;;5007561;28;20467;-58
2022/04/04 10:00:28;;;;;;;7.93;7.23;;;10.60;34.50;;;;;;5024473;28;20421;-59
2022/04/04 10:02:57;;;;;;;6.87;6.30;;;10.10;36.00;;;;;;5030246;28;20414;-58
2022/04/04 10:05:26;;;;;;;6.80;6.30;;;10.20;35.10;;;;;;5024535;28;20700;-58
2022/04/04 10:07:55;;;;;;;7.80;7.20;;;10.20;34.40;;;;;;5004900;28;20893;-60
2022/04/04 10:10:31;;;;;;;7.63;6.87;;;9.80;35.30;;;;;;5025448;28;20857;-57
2022/04/04 10:12:58;;;;;;;7.90;7.20;;;9.60;36.70;;;;;;5028841;28;20416;-57
2022/04/04 10:15:25;;;;;;;9.30;8.50;;;9.80;37.30;;;;;;5009436;28;20478;-56
2022/04/04 10:17:52;;;;;;;8.17;7.57;;;9.70;37.20;;;;;;5016979;28;20421;-59
2022/04/04 10:20:20;;;;;;;9.03;8.13;;;9.60;36.70;;;;;;5019114;28;20517;-58
2022/04/04 10:22:47;;;;;;;8.50;7.80;;;9.60;36.80;;;;;;5028417;28;20413;-60
2022/04/04 10:25:15;;;;;;;7.97;7.17;;;9.50;37.90;;;;;;5028030;28;20549;-58
2022/04/04 10:27:45;;;;;;;9.07;8.30;;;9.40;37.40;;;;;;5025656;28;20434;-59
2022/04/04 10:30:11;;;;;;;7.60;7.00;;;9.30;38.60;;;;;;5022509;28;20440;-57
2022/04/04 10:32:51;;;;;;;8.03;7.33;;;9.30;37.90;;;;;;5005073;28;20433;-56
2022/04/04 10:35:20;;;;;;;9.07;8.37;;;9.00;36.90;;;;;;5030377;28;20210;-60
2022/04/04 10:37:46;;;;;;;9.40;8.60;;;9.30;38.50;;;;;;5023693;28;20418;-59
2022/04/04 10:40:38;;;;;;;8.67;7.87;;;9.30;39.20;;;;;;5010324;28;20807;-56
2022/04/04 10:43:07;;;;;;;9.67;8.87;;;9.30;39.40;;;;;;5016918;28;20360;-58
2022/04/04 10:45:53;;;;;;;9.33;8.60;;;9.20;40.00;;;;;;5014567;28;20549;-56
2022/04/04 10:48:20;;;;;;;7.13;6.63;;;9.40;39.10;;;;;;5009467;28;20433;-57
2022/04/04 10:50:47;;;;;;;8.50;7.90;;;9.20;37.60;;;;;;5010161;28;20434;-57
2022/04/04 10:53:12;;;;;;;7.40;6.90;;;9.30;37.90;;;;;;5007098;28;20426;-58
2022/04/04 10:55:48;;;;;;;8.67;8.07;;;9.30;37.40;;;;;;4990815;28;20786;-58
2022/04/04 10:58:16;;;;;;;8.43;7.73;;;9.40;37.10;;;;;;5005184;28;20168;-55
2022/04/04 11:01:04;;;;;;;8.80;8.10;;;10.00;36.60;;;;;;5007923;28;20893;-57
2022/04/04 11:03:30;;;;;;;8.20;7.60;;;10.50;35.40;;;;;;5002525;28;20422;-59
2022/04/04 11:09:18;;;;;;;8.07;7.47;;;10.10;34.60;;;;;;5010517;28;20390;-60
2022/04/04 11:11:54;;;;;;;8.93;8.23;;;10.40;35.30;;;;;;5009831;28;20449;-58
2022/04/04 11:14:31;;;;;;;8.57;7.83;;;10.80;34.80;;;;;;5010165;28;20410;-61
2022/04/04 11:17:06;;;;;;;8.70;8.07;;;10.60;34.80;;;;;;5009993;28;20399;-59
2022/04/04 11:19:47;;;;;;;8.37;7.73;;;10.60;34.50;;;;;;5004996;28;20807;-57
2022/04/04 11:22:14;;;;;;;8.80;8.20;;;11.10;35.10;;;;;;5007998;28;20473;-58
2022/04/04 11:24:40;;;;;;;9.33;8.63;;;11.60;34.50;;;;;;5016538;28;20492;-59
2022/04/04 11:27:07;;;;;;;8.50;7.90;;;11.50;33.70;;;;;;5029490;28;20417;-57
2022/04/04 11:29:35;;;;;;;8.70;8.00;;;11.40;34.00;;;;;;5013321;28;20423;-58
2022/04/04 11:32:02;;;;;;;8.50;7.83;;;11.20;33.80;;;;;;5023907;28;20447;-55
2022/04/04 11:34:31;;;;;;;9.53;8.83;;;11.10;33.90;;;;;;5029178;28;20811;-59
2022/04/04 11:36:58;;;;;;;10.13;9.33;;;10.50;34.60;;;;;;5018238;28;20426;-59
2022/04/04 11:39:23;;;;;;;9.30;8.50;;;10.50;36.20;;;;;;5015216;28;20429;-57
2022/04/04 11:41:53;;;;;;;7.53;6.93;;;11.00;36.10;;;;;;5018833;28;20433;-59
2022/04/04 11:44:31;;;;;;;8.37;7.70;;;10.50;34.90;;;;;;5029213;28;20210;-60
2022/04/04 11:47:10;;;;;;;9.87;9.17;;;10.60;35.30;;;;;;5016727;28;20469;-59
2022/04/04 11:49:37;;;;;;;9.30;8.50;;;10.70;35.20;;;;;;5028149;28;20449;-56
2022/04/04 11:52:07;;;;;;;9.30;8.50;;;10.90;35.40;;;;;;5023844;28;20432;-58
2022/04/04 11:54:43;;;;;;;10.07;9.23;;;10.80;35.20;;;;;;5029059;28;20552;-56
2022/04/04 11:57:10;;;;;;;8.70;8.10;;;10.90;34.30;;;;;;5023232;28;20449;-56
2022/04/04 11:59:43;;;;;;;9.43;8.70;;;10.80;33.50;;;;;;5029140;28;20421;-59
2022/04/04 12:02:11;;;;;;;9.87;9.07;;;10.90;34.20;;;;;;5003154;28;20878;-58
2022/04/04 12:04:39;;;;;;;9.43;8.63;;;11.10;33.60;;;;;;5021575;28;20797;-57
2022/04/04 12:07:05;;;;;;;10.50;8.33;;;11.50;33.90;;;;;;5022546;28;20409;-59
2022/04/04 12:09:33;;;;;;;10.23;9.43;;;11.60;33.50;;;;;;5027977;28;20440;-59
2022/04/04 12:12:05;;;;;;;8.57;7.83;;;12.10;33.90;;;;;;5022850;28;20456;-60
2022/04/04 12:14:37;;;;;;;8.70;8.10;;;12.20;33.00;;;;;;5016193;28;20526;-60
2022/04/04 12:17:04;;;;;;;9.27;8.60;;;11.50;33.50;;;;;;5018998;28;20491;-59
2022/04/04 12:19:29;;;;;;;9.27;8.57;;;12.00;34.20;;;;;;5008185;28;20440;-58
2022/04/04 12:21:57;;;;;;;10.40;9.60;;;12.50;33.00;;;;;;5011027;28;20465;-56
2022/04/04 12:27:12;;;;;;;9.17;8.47;;;12.30;31.90;;;;;;5032464;28;20467;-59
2022/04/04 12:29:44;;;;;;;11.87;10.77;;;11.30;31.50;;;;;;5010796;28;20492;-57
2022/04/04 12:32:15;;;;;;;8.60;7.97;;;10.40;32.50;;;;;;5030006;28;20417;-58
2022/04/04 12:34:54;;;;;;;9.00;8.30;;;10.10;34.10;;;;;;5016849;28;20442;-58
2022/04/04 12:37:20;;;;;;;9.40;8.70;;;9.70;36.00;;;;;;5018820;28;20405;-57
2022/04/04 12:39:49;;;;;;;10.30;9.40;;;9.60;36.50;;;;;;5026929;28;20424;-58
2022/04/04 12:42:15;;;;;;;10.57;9.67;;;9.50;37.00;;;;;;5021308;28;20430;-58
2022/04/04 12:44:40;;;;;;;11.10;10.00;;;9.70;37.90;;;;;;5022677;28;20468;-59
2022/04/04 12:47:12;;;;;;;9.60;8.80;;;10.10;36.20;;;;;;5032256;28;20262;-57
2022/04/04 12:49:39;;;;;;;8.00;7.40;;;10.40;35.20;;;;;;5021942;28;20792;-55
2022/04/04 12:52:07;;;;;;;11.03;10.13;;;10.30;34.90;;;;;;5028260;28;20632;-58
2022/04/04 12:54:39;;;;;;;10.50;9.70;;;10.10;35.10;;;;;;5031543;28;20469;-56
2022/04/04 12:57:07;;;;;;;10.17;9.27;;;10.10;35.90;;;;;;5032069;28;20907;-56
2022/04/04 12:59:53;;;;;;;9.00;8.30;;;9.80;37.10;;;;;;5032028;28;20418;-58
2022/04/04 13:02:18;;;;;;;10.20;9.40;;;10.20;35.60;;;;;;5029383;28;20460;-59